Time;durP1;ratioP1;P1;durP2;ratioP2;P2;SDS_P1;SDS_P2;PMS_P1;PMS_P2;Temp;Humidity;BMP_temperature;BMP_pressure;BME280_temperature;BME280_humidity;BME280_pressure;Samples;Min_cycle;Max_cycle;Signal;HPM_P1;HPM_P2
2022/04/01 00:01:16;;;;;;;0.40;0.32;;;;;;;18.63;27.64;100078.84;16137936;19;130016;-48
2022/04/01 00:06:37;;;;;;;0.38;0.38;;;;;;;18.57;28.04;100075.22;16138733;19;129553;-45
2022/04/01 00:11:59;;;;;;;0.30;0.30;;;;;;;18.54;27.91;100074.94;16131559;19;129327;-44
2022/04/01 00:17:21;;;;;;;0.30;0.30;;;;;;;18.50;27.74;100087.63;16138361;19;129334;-47
2022/04/01 00:22:44;;;;;;;0.52;0.40;;;;;;;18.46;27.66;100085.38;16135917;19;129360;-46
2022/04/01 00:28:06;;;;;;;0.55;0.40;;;;;;;18.43;27.55;100096.16;16134729;19;130080;-47
2022/04/01 00:33:28;;;;;;;0.70;0.32;;;;;;;18.40;27.95;100103.06;16129384;19;129578;-45
2022/04/01 00:38:50;;;;;;;0.40;0.40;;;;;;;18.36;27.92;100110.19;16132753;19;129792;-47
2022/04/01 00:44:15;;;;;;;0.75;0.50;;;;;;;18.31;27.91;100124.03;16124392;19;130007;-46
2022/04/01 00:49:39;;;;;;;0.40;0.40;;;;;;;18.28;27.71;100116.22;16127413;19;129028;-49
2022/04/01 00:55:03;;;;;;;0.43;0.43;;;;;;;18.26;27.79;100116.50;16127480;19;129906;-48
2022/04/01 01:00:25;;;;;;;0.85;0.30;;;;;;;18.21;27.87;100122.00;16130572;19;131627;-44
2022/04/01 01:05:47;;;;;;;0.35;0.35;;;;;;;18.18;27.64;100127.22;16129263;19;129302;-47
2022/04/01 01:11:09;;;;;;;0.43;0.40;;;;;;;18.15;27.84;100137.72;16124668;19;129896;-45
2022/04/01 01:16:31;;;;;;;0.30;0.30;;;;;;;18.12;27.66;100129.09;16127302;19;132630;-48
2022/04/01 01:21:55;;;;;;;0.30;0.30;;;;;;;18.08;27.75;100128.81;16127461;19;129846;-48
2022/04/01 01:27:17;;;;;;;0.43;0.38;;;;;;;18.04;27.81;100124.88;16126425;19;130953;-45
2022/04/01 01:32:39;;;;;;;0.20;0.20;;;;;;;18.02;27.34;100140.91;16130676;19;130392;-49
2022/04/01 01:38:01;;;;;;;0.40;0.32;;;;;;;17.98;27.79;100135.06;16131274;19;129845;-45
2022/04/01 01:43:24;;;;;;;0.40;0.40;;;;;;;17.96;27.83;100139.19;16139980;19;129287;-47
2022/04/01 01:48:46;;;;;;;0.40;0.40;;;;;;;17.91;27.78;100139.13;16144029;19;129461;-46
2022/04/01 01:59:49;;;;;;;0.32;0.32;;;;;;;17.83;27.34;100144.06;16145186;19;129321;-45
2022/04/01 02:05:10;;;;;;;0.40;0.20;;;;;;;17.80;27.25;100150.09;16141369;19;129016;-46
2022/04/01 02:10:33;;;;;;;0.30;0.30;;;;;;;17.79;27.29;100150.34;16140542;19;130357;-44
2022/04/01 02:15:55;;;;;;;0.30;0.30;;;;;;;17.76;27.43;100151.69;16142709;19;132943;-48
2022/04/01 02:21:17;;;;;;;0.35;0.35;;;;;;;17.73;27.24;100157.75;16141203;19;130009;-49
2022/04/01 02:26:39;;;;;;;0.35;0.35;;;;;;;17.71;27.26;100157.19;16142473;19;130856;-48
2022/04/01 02:32:01;;;;;;;0.30;0.30;;;;;;;17.68;27.11;100161.28;16139032;19;130256;-46
2022/04/01 02:37:25;;;;;;;0.38;0.30;;;;;;;17.66;26.92;100163.47;16140184;19;129605;-44
2022/04/01 02:42:47;;;;;;;0.75;0.40;;;;;;;17.63;27.07;100174.22;16140228;19;129577;-55
2022/04/01 02:48:09;;;;;;;0.55;0.40;;;;;;;17.59;27.15;100181.38;16135671;19;130477;-54
2022/04/01 02:53:32;;;;;;;0.30;0.30;;;;;;;17.56;27.00;100181.91;16138403;19;130375;-50
2022/04/01 02:58:53;;;;;;;0.25;0.25;;;;;;;17.53;27.28;100195.09;16137322;19;129816;-54
2022/04/01 03:04:15;;;;;;;0.20;0.20;;;;;;;17.51;27.03;100197.28;16140986;19;130232;-55
2022/04/01 03:09:43;;;;;;;0.35;0.32;;;;;;;17.50;26.93;100203.09;16138703;19;129654;-50
2022/04/01 03:15:05;;;;;;;0.50;0.40;;;;;;;17.48;27.06;100203.31;16139281;19;130745;-46
2022/04/01 03:20:29;;;;;;;0.80;0.40;;;;;;;17.46;26.92;100208.28;16134615;19;129172;-46
2022/04/01 03:25:53;;;;;;;0.30;0.30;;;;;;;17.43;26.88;100211.56;16138508;19;130075;-44
2022/04/01 03:31:16;;;;;;;0.80;0.30;;;;;;;17.39;27.12;100218.69;16135015;19;129347;-44
2022/04/01 03:36:39;;;;;;;0.38;0.30;;;;;;;17.38;27.14;100230.84;16139123;19;130423;-45
2022/04/01 03:42:01;;;;;;;0.55;0.40;;;;;;;17.36;26.93;100233.88;16138747;19;129002;-47
2022/04/01 03:47:29;;;;;;;0.73;0.40;;;;;;;17.35;26.65;100236.91;16130835;19;129891;-45
2022/04/01 03:52:53;;;;;;;0.25;0.20;;;;;;;17.37;26.99;100245.75;16131715;19;129096;-45
2022/04/01 03:58:18;;;;;;;0.30;0.30;;;;;;;17.51;26.72;100247.06;16134024;19;129972;-44
2022/04/01 04:03:41;;;;;;;0.32;0.32;;;;;;;17.94;26.16;100263.16;16130279;19;129501;-46
2022/04/01 04:09:03;;;;;;;0.40;0.30;;;;;;;18.59;25.77;100260.53;16133351;19;129155;-44
2022/04/01 04:14:27;;;;;;;0.15;0.10;;;;;;;19.32;25.00;100271.16;16136340;19;130055;-45
2022/04/01 04:20:13;;;;;;;0.20;0.10;;;;;;;19.79;24.25;100263.09;16135313;19;131013;-44
2022/04/01 04:25:37;;;;;;;0.30;0.30;;;;;;;19.93;24.62;100272.63;16135303;19;129640;-47
2022/04/01 04:31:03;;;;;;;0.22;0.20;;;;;;;19.94;24.49;100277.03;16131908;19;129052;-47
2022/04/01 04:36:41;;;;;;;1.42;0.22;;;;;;;19.84;24.26;100288.94;16133794;19;130382;-48
2022/04/01 04:42:04;;;;;;;0.30;0.30;;;;;;;19.68;24.26;100289.97;16132541;19;129317;-50
2022/04/01 04:47:28;;;;;;;0.50;0.30;;;;;;;19.53;24.58;100305.41;16127622;19;130010;-44
2022/04/01 04:52:55;;;;;;;0.55;0.20;;;;;;;19.40;24.80;100316.97;16127891;19;131147;-49
2022/04/01 04:58:18;;;;;;;0.28;0.22;;;;;;;19.25;24.56;100334.34;16130086;19;128909;-45
2022/04/01 05:04:01;;;;;;;0.30;0.30;;;;;;;19.12;24.84;100340.28;16131046;19;129499;-47
2022/04/01 05:09:48;;;;;;;0.38;0.30;;;;;;;18.98;25.00;100362.06;16130614;19;129410;-47
2022/04/01 05:15:13;;;;;;;1.40;0.30;;;;;;;18.81;25.36;100364.97;16131339;19;129332;-47
2022/04/01 05:20:38;;;;;;;1.38;0.50;;;;;;;18.69;25.38;100368.72;16140484;19;129868;-49
2022/04/01 05:26:11;;;;;;;0.40;0.30;;;;;;;18.57;25.23;100371.63;16148338;19;129349;-46
2022/04/01 05:31:42;;;;;;;0.30;0.30;;;;;;;18.46;25.34;100380.91;16144807;19;129782;-45
2022/04/01 05:37:05;;;;;;;0.45;0.28;;;;;;;18.38;24.95;100390.47;16144158;19;129898;-46
2022/04/01 05:42:27;;;;;;;0.52;0.30;;;;;;;18.43;25.07;100390.59;16142877;19;131447;-46
2022/04/01 05:47:50;;;;;;;0.40;0.30;;;;;;;18.52;24.76;100409.50;16138816;19;130581;-46
2022/04/01 05:53:14;;;;;;;0.90;0.35;;;;;;;18.57;25.09;100409.59;16141738;19;129589;-45
2022/04/01 05:58:35;;;;;;;1.45;0.30;;;;;;;18.64;24.96;100426.00;16144934;19;130845;-50
2022/04/01 06:04:29;;;;;;;2.85;0.50;;;;;;;18.80;24.86;100436.16;16144787;19;129534;-45
2022/04/01 06:09:59;;;;;;;0.38;0.38;;;;;;;18.97;24.59;100447.16;16141132;19;130943;-47
2022/04/01 06:15:47;;;;;;;0.55;0.40;;;;;;;19.04;24.33;100460.81;16142103;19;129396;-48
2022/04/01 06:21:15;;;;;;;2.72;0.40;;;;;;;19.01;24.06;100473.28;16141784;19;129581;-45
2022/04/01 06:26:47;;;;;;;1.65;0.50;;;;;;;18.95;24.11;100485.41;16145184;19;129202;-45
2022/04/01 06:32:17;;;;;;;1.50;0.40;;;;;;;18.84;24.24;100487.22;16140309;19;129860;-46
2022/04/01 06:37:53;;;;;;;0.50;0.40;;;;;;;18.73;24.42;100500.09;16141653;19;129347;-45
2022/04/01 06:43:16;;;;;;;0.63;0.52;;;;;;;18.63;24.34;100507.44;16143221;19;129560;-43
2022/04/01 06:48:38;;;;;;;0.47;0.47;;;;;;;18.51;24.41;100513.09;16138930;19;131494;-46
2022/04/01 06:54:00;;;;;;;1.02;0.50;;;;;;;18.40;24.38;100524.03;16139354;19;129965;-45
2022/04/01 06:59:21;;;;;;;2.00;0.75;;;;;;;18.29;24.35;100536.84;16140574;19;130611;-45
2022/04/01 07:04:43;;;;;;;0.50;0.40;;;;;;;18.20;24.71;100559.69;16139654;19;129417;-44
2022/04/01 07:10:07;;;;;;;1.55;0.60;;;;;;;18.09;24.70;100553.97;16134380;19;131330;-44
2022/04/01 07:15:29;;;;;;;1.17;0.52;;;;;;;18.00;24.65;100572.09;16140442;19;130133;-45
2022/04/01 07:20:52;;;;;;;0.73;0.63;;;;;;;17.94;24.93;100575.88;16141168;19;129338;-47
2022/04/01 07:26:14;;;;;;;1.13;0.50;;;;;;;17.84;25.07;100582.91;16137210;19;129823;-45
2022/04/01 07:37:53;;;;;;;2.10;0.70;;;;;;;17.67;24.83;100599.47;16132616;19;132911;-46
2022/04/01 07:43:15;;;;;;;1.42;0.70;;;;;;;17.63;25.19;100614.91;16134220;19;130024;-45
2022/04/01 07:48:37;;;;;;;1.52;0.60;;;;;;;17.57;24.87;100635.22;16131929;19;129416;-45
2022/04/01 07:53:59;;;;;;;1.00;0.80;;;;;;;17.51;24.89;100639.78;16131276;19;129814;-46
2022/04/01 07:59:24;;;;;;;0.98;0.60;;;;;;;17.47;25.08;100644.16;16130563;19;130054;-46
2022/04/01 08:04:45;;;;;;;0.45;0.45;;;;;;;17.45;24.98;100660.16;16135597;19;129183;-46
2022/04/01 08:10:09;;;;;;;1.20;0.57;;;;;;;17.43;25.04;100676.13;16135727;19;130559;-46
2022/04/01 08:15:35;;;;;;;2.72;0.65;;;;;;;17.38;25.16;100671.34;16133671;19;129537;-46
2022/04/01 08:20:57;;;;;;;1.02;0.57;;;;;;;17.34;24.81;100688.66;16130036;19;130692;-51
2022/04/01 08:26:19;;;;;;;1.75;0.60;;;;;;;17.32;25.00;100693.59;16133855;19;130000;-44
2022/04/01 08:31:41;;;;;;;1.63;0.60;;;;;;;17.40;25.05;100698.75;16129959;19;131837;-46
2022/04/01 08:37:05;;;;;;;2.00;0.65;;;;;;;17.71;24.86;100710.50;16130323;19;129397;-48
2022/04/01 08:42:27;;;;;;;2.50;0.88;;;;;;;18.14;24.81;100714.66;16130209;19;129324;-47
2022/04/01 08:47:50;;;;;;;2.85;0.60;;;;;;;18.55;24.48;100722.03;16129902;19;129304;-45
2022/04/01 08:53:12;;;;;;;1.88;0.60;;;;;;;18.86;23.71;100726.16;16142366;19;129856;-43
2022/04/01 08:58:35;;;;;;;1.02;0.55;;;;;;;19.03;23.70;100737.22;16149736;19;131012;-46
2022/04/01 09:04:02;;;;;;;1.27;0.80;;;;;;;19.06;23.14;100741.41;16149826;19;129796;-44
2022/04/01 09:09:27;;;;;;;0.75;0.60;;;;;;;19.01;23.15;100750.50;16147586;19;130664;-47
2022/04/01 09:14:51;;;;;;;2.90;0.80;;;;;;;18.94;23.45;100757.31;16149473;19;129436;-46
2022/04/01 09:20:14;;;;;;;0.73;0.50;;;;;;;18.83;23.26;100759.91;16143421;19;129281;-45
2022/04/01 09:25:45;;;;;;;1.05;0.60;;;;;;;18.67;23.43;100767.13;16143222;19;129379;-44
2022/04/01 09:31:10;;;;;;;1.50;0.70;;;;;;;18.54;23.83;100768.28;16142612;19;130739;-46
2022/04/01 09:36:55;;;;;;;2.22;0.60;;;;;;;18.43;23.64;100786.66;16144177;19;129328;-46
2022/04/01 09:42:19;;;;;;;4.10;0.80;;;;;;;18.31;23.76;100796.94;16144395;19;130247;-47
2022/04/01 09:47:41;;;;;;;1.00;0.63;;;;;;;18.20;23.65;100790.34;16137037;19;129397;-44
2022/04/01 09:53:09;;;;;;;1.42;0.60;;;;;;;18.11;23.70;100794.59;16137831;19;130261;-44
2022/04/01 09:58:31;;;;;;;1.02;0.68;;;;;;;18.01;24.00;100792.44;16137116;19;129092;-43
2022/04/01 10:03:53;;;;;;;1.88;0.80;;;;;;;17.88;23.93;100806.56;16139731;19;129599;-44
2022/04/01 10:09:19;;;;;;;2.78;0.90;;;;;;;17.79;24.05;100811.63;16139327;19;130360;-43
2022/04/01 10:15:01;;;;;;;1.85;0.50;;;;;;;17.72;23.98;100811.78;16142072;19;129881;-45
2022/04/01 10:20:43;;;;;;;1.77;0.80;;;;;;;17.66;24.01;100823.81;16142239;19;129035;-46
2022/04/01 10:26:09;;;;;;;1.52;0.88;;;;;;;17.59;24.44;100823.94;16140759;19;130053;-44
2022/04/01 10:31:30;;;;;;;1.23;0.73;;;;;;;17.51;24.08;100827.03;16139156;19;131770;-44
2022/04/01 10:37:00;;;;;;;1.40;0.60;;;;;;;17.45;24.22;100823.31;16135755;19;129472;-45
2022/04/01 10:42:26;;;;;;;1.08;0.70;;;;;;;17.40;24.21;100828.72;16141311;19;130629;-49
2022/04/01 10:53:47;;;;;;;0.88;0.70;;;;;;;17.31;24.28;100832.94;16140505;19;129305;-45
2022/04/01 10:59:11;;;;;;;1.42;0.90;;;;;;;17.28;24.59;100844.47;16145254;19;129224;-44
2022/04/01 11:04:44;;;;;;;1.15;0.65;;;;;;;17.25;24.44;100856.84;16144114;19;128851;-46
2022/04/01 11:10:07;;;;;;;1.08;0.50;;;;;;;17.25;24.32;100845.78;16137814;19;130154;-45
2022/04/01 11:15:30;;;;;;;0.73;0.70;;;;;;;17.36;24.46;100858.78;16135700;19;131019;-47
2022/04/01 11:20:55;;;;;;;3.72;0.95;;;;;;;17.62;23.87;100861.31;16144073;19;130159;-46
2022/04/01 11:26:17;;;;;;;0.75;0.52;;;;;;;17.91;23.94;100855.91;16143852;19;129600;-46
2022/04/01 11:31:41;;;;;;;0.90;0.52;;;;;;;18.22;23.59;100870.38;16139992;19;129484;-47
2022/04/01 11:37:04;;;;;;;1.73;0.60;;;;;;;18.50;23.14;100877.06;16139370;19;130574;-45
2022/04/01 11:42:26;;;;;;;1.13;0.60;;;;;;;18.66;23.15;100879.06;16141088;19;128989;-44
2022/04/01 11:47:48;;;;;;;0.82;0.60;;;;;;;18.72;23.19;100880.84;16137606;19;129537;-45
2022/04/01 11:53:22;;;;;;;0.98;0.70;;;;;;;18.69;22.80;100881.34;16137747;19;128923;-50
2022/04/01 11:58:47;;;;;;;0.77;0.50;;;;;;;18.61;22.81;100874.28;16140791;19;129582;-45
2022/04/01 12:04:14;;;;;;;4.70;0.80;;;;;;;18.51;23.35;100890.69;16141168;19;129599;-47
2022/04/01 12:09:35;;;;;;;1.38;0.60;;;;;;;18.40;23.15;100899.88;16137149;19;129047;-50
2022/04/01 12:14:57;;;;;;;4.35;0.88;;;;;;;18.30;23.50;100897.72;16133469;19;129768;-44
2022/04/01 12:20:22;;;;;;;1.17;0.60;;;;;;;18.20;23.66;100897.50;16139436;19;130030;-45
2022/04/01 12:25:52;;;;;;;2.65;0.75;;;;;;;18.09;23.74;100894.47;16138097;19;129869;-44
2022/04/01 12:31:27;;;;;;;2.75;0.60;;;;;;;18.00;24.24;100902.34;16134295;19;130210;-45
2022/04/01 12:36:56;;;;;;;4.45;0.90;;;;;;;17.90;23.87;100901.25;16140564;19;130616;-45
2022/04/01 12:42:24;;;;;;;2.92;1.08;;;;;;;17.78;23.67;100912.34;16137691;19;129063;-45
2022/04/01 12:47:46;;;;;;;2.28;0.90;;;;;;;17.70;23.85;100919.09;16132752;19;129881;-47
2022/04/01 12:53:09;;;;;;;2.30;0.90;;;;;;;17.63;24.03;100927.50;16134287;19;129598;-47
2022/04/01 12:58:49;;;;;;;4.00;1.20;;;;;;;17.53;24.10;100924.47;16137499;19;129670;-45
2022/04/01 13:04:19;;;;;;;2.75;1.20;;;;;;;17.48;23.88;100904.97;16135606;19;129191;-47
2022/04/01 13:09:55;;;;;;;2.08;1.05;;;;;;;17.41;24.28;100932.72;16132522;19;130152;-50
2022/04/01 13:15:20;;;;;;;4.72;1.10;;;;;;;17.35;23.99;100925.41;16130449;19;129830;-46
2022/04/01 13:20:42;;;;;;;2.10;1.20;;;;;;;17.31;24.11;100929.69;16135093;19;131526;-47
2022/04/01 13:26:05;;;;;;;2.35;1.10;;;;;;;17.22;24.07;100924.53;16132038;19;129560;-45
2022/04/01 13:31:27;;;;;;;2.85;1.08;;;;;;;17.17;24.17;100931.84;16133730;19;129247;-48
2022/04/01 13:36:51;;;;;;;3.47;1.10;;;;;;;17.11;24.40;100941.91;16134576;19;131645;-49
2022/04/01 13:42:14;;;;;;;2.65;1.00;;;;;;;17.08;24.26;100956.22;16149504;19;129603;-48
2022/04/01 13:47:35;;;;;;;2.53;1.10;;;;;;;17.11;24.33;100944.66;16145100;19;129667;-50
2022/04/01 13:52:57;;;;;;;1.15;0.90;;;;;;;17.32;24.17;100953.50;16143553;19;130054;-43
2022/04/01 13:58:19;;;;;;;2.22;1.05;;;;;;;17.62;23.59;100960.91;16148291;19;129741;-41
2022/04/01 14:03:41;;;;;;;1.63;1.05;;;;;;;17.92;23.31;100969.13;16148640;19;129208;-42
2022/04/01 14:09:05;;;;;;;2.85;1.20;;;;;;;18.19;23.06;100960.31;16146694;19;129627;-41
2022/04/01 14:14:27;;;;;;;1.77;1.05;;;;;;;18.40;22.94;100967.19;16143643;19;129317;-44
2022/04/01 14:19:48;;;;;;;2.58;1.15;;;;;;;18.53;23.12;100966.06;16145125;19;128907;-41
2022/04/01 14:25:10;;;;;;;1.33;1.10;;;;;;;18.60;23.09;100969.56;16141839;19;129857;-42
2022/04/01 14:30:32;;;;;;;2.67;1.02;;;;;;;18.58;23.25;100968.13;16147067;19;129842;-42
2022/04/01 14:35:54;;;;;;;3.67;1.10;;;;;;;18.53;23.20;100990.19;16139410;19;129371;-44
2022/04/01 14:41:17;;;;;;;3.70;1.08;;;;;;;18.44;23.24;100996.09;16145423;19;129219;-42
2022/04/01 14:46:39;;;;;;;2.55;1.30;;;;;;;18.28;23.65;100991.25;16139554;19;130442;-44
2022/04/01 14:52:01;;;;;;;3.08;1.50;;;;;;;18.14;23.66;100991.50;16139357;19;129454;-43
2022/04/01 14:57:24;;;;;;;2.45;1.30;;;;;;;18.02;23.44;101004.50;16142752;19;129540;-41
2022/04/01 15:02:46;;;;;;;4.70;1.52;;;;;;;17.93;23.74;101000.44;16141537;19;130191;-43
2022/04/01 15:08:09;;;;;;;3.95;1.80;;;;;;;17.83;23.58;101001.88;16140876;19;129046;-41
2022/04/01 15:13:32;;;;;;;4.05;1.33;;;;;;;17.75;23.26;101002.19;16138537;19;130203;-42
2022/04/01 15:18:54;;;;;;;4.40;1.48;;;;;;;17.66;23.89;101001.69;16138687;19;128875;-43
2022/04/01 15:24:16;;;;;;;4.00;1.63;;;;;;;17.57;23.80;101019.72;16142450;19;129149;-44
2022/04/01 15:29:37;;;;;;;1.98;1.38;;;;;;;17.50;23.90;101030.88;16140900;19;129880;-44
2022/04/01 15:34:59;;;;;;;1.98;1.42;;;;;;;17.43;23.78;101035.66;16133780;19;129493;-42
2022/04/01 15:40:21;;;;;;;2.72;1.55;;;;;;;17.43;24.27;101045.88;16133902;19;129561;-43
2022/04/01 15:45:43;;;;;;;2.13;1.48;;;;;;;17.48;23.75;101041.31;16138083;19;129521;-44
2022/04/01 15:51:07;;;;;;;4.65;1.48;;;;;;;17.59;23.84;101049.94;16140031;19;129461;-42
2022/04/01 15:56:29;;;;;;;1.92;1.38;;;;;;;17.73;23.70;101045.03;16136006;19;129064;-42
2022/04/01 16:01:52;;;;;;;3.53;1.45;;;;;;;17.86;23.80;101055.88;16137598;19;128994;-44
2022/04/01 16:07:15;;;;;;;2.15;1.50;;;;;;;17.99;23.56;101054.81;16138654;19;129788;-43
2022/04/01 16:12:40;;;;;;;2.35;1.10;;;;;;;18.09;23.61;101063.38;16135679;19;129587;-42
2022/04/01 16:18:02;;;;;;;2.00;1.17;;;;;;;18.13;23.23;101067.34;16137188;19;129498;-44
2022/04/01 16:23:27;;;;;;;4.25;1.50;;;;;;;18.41;23.69;101084.38;16133405;19;129742;-46
2022/04/01 16:28:49;;;;;;;3.70;1.57;;;;;;;18.81;23.08;101077.25;16135444;19;130457;-39
2022/04/01 16:34:10;;;;;;;2.10;1.33;;;;;;;19.22;22.88;101089.19;16129960;19;129405;-41
2022/04/01 16:39:32;;;;;;;5.28;1.40;;;;;;;19.55;22.56;101093.19;16135271;19;130345;-41
2022/04/01 16:44:54;;;;;;;2.53;1.17;;;;;;;19.68;22.58;101098.44;16134598;19;129676;-42
2022/04/01 16:50:17;;;;;;;5.93;1.60;;;;;;;19.68;22.36;101097.56;16136914;19;128943;-43
2022/04/01 16:55:39;;;;;;;4.68;1.20;;;;;;;19.60;22.34;101106.31;16131135;19;129079;-44
2022/04/01 17:01:00;;;;;;;3.80;1.15;;;;;;;19.46;22.62;101105.75;16134380;19;130034;-43
2022/04/01 17:17:44;;;;;;;1.58;0.80;;;;;;;19.14;22.80;101120.91;16150701;19;129748;-44
2022/04/01 17:23:07;;;;;;;1.70;0.77;;;;;;;19.20;22.62;101131.03;16148155;19;129123;-41
2022/04/01 17:28:30;;;;;;;1.00;0.50;;;;;;;19.29;22.64;101133.44;16148744;19;129201;-42
2022/04/01 17:33:55;;;;;;;0.98;0.43;;;;;;;19.37;22.53;101136.66;16145616;19;129505;-42
2022/04/01 17:39:19;;;;;;;1.42;0.75;;;;;;;19.44;22.44;101146.81;16147692;19;130156;-42
2022/04/01 17:44:44;;;;;;;3.03;0.80;;;;;;;19.47;22.44;101149.06;16140763;19;131501;-41
2022/04/01 17:50:06;;;;;;;3.40;0.70;;;;;;;19.55;22.07;101158.94;16142629;19;129507;-42
2022/04/01 17:55:28;;;;;;;2.17;0.60;;;;;;;19.65;22.49;101162.75;16141720;19;129533;-42
2022/04/01 18:00:51;;;;;;;2.28;0.82;;;;;;;19.76;22.44;101165.72;16147539;19;129394;-43
2022/04/01 18:06:18;;;;;;;2.85;0.60;;;;;;;20.12;22.15;101183.09;16145057;19;129337;-42
2022/04/01 18:11:40;;;;;;;1.80;0.70;;;;;;;20.55;22.10;101189.94;16147785;19;129476;-45
2022/04/01 18:17:05;;;;;;;2.65;0.60;;;;;;;20.94;21.63;101193.88;16146473;19;130875;-43
2022/04/01 18:22:27;;;;;;;1.23;0.70;;;;;;;21.25;21.88;101211.00;16142189;19;129762;-43
2022/04/01 18:28:02;;;;;;;1.13;0.52;;;;;;;21.41;21.35;101207.34;16144714;19;129863;-42
2022/04/01 18:33:30;;;;;;;6.50;0.60;;;;;;;21.45;21.47;101213.22;16142654;19;129336;-43
2022/04/01 18:38:53;;;;;;;2.42;0.60;;;;;;;21.44;21.73;101222.66;16146048;19;129287;-44
2022/04/01 18:44:15;;;;;;;2.03;0.40;;;;;;;21.32;21.74;101236.69;16143505;19;129885;-47
2022/04/01 18:49:37;;;;;;;1.23;0.40;;;;;;;21.13;21.88;101244.50;16143082;19;129305;-44
2022/04/01 18:54:59;;;;;;;2.67;0.50;;;;;;;20.93;22.34;101256.16;16141454;19;129462;-43
2022/04/01 19:00:22;;;;;;;1.27;0.55;;;;;;;20.71;22.57;101254.97;16136966;19;129523;-44
2022/04/01 19:05:46;;;;;;;2.15;0.57;;;;;;;20.48;22.53;101267.06;16144206;19;130203;-41
2022/04/01 19:11:32;;;;;;;7.47;1.17;;;;;;;20.24;22.68;101272.75;16140945;19;128955;-41
2022/04/01 19:16:54;;;;;;;4.50;0.77;;;;;;;20.15;23.04;101268.69;16135934;19;130212;-41
2022/04/01 19:22:17;;;;;;;4.57;0.52;;;;;;;20.12;22.83;101274.75;16143328;19;129378;-43
2022/04/01 19:27:40;;;;;;;3.35;0.65;;;;;;;20.12;22.80;101274.75;16142672;19;129697;-42
2022/04/01 19:33:03;;;;;;;9.73;0.80;;;;;;;20.18;22.80;101279.31;16141288;19;129368;-42
2022/04/01 19:38:25;;;;;;;5.55;0.90;;;;;;;20.37;22.97;101285.47;16138839;19;129662;-42
2022/04/01 19:43:47;;;;;;;7.72;0.90;;;;;;;20.65;23.04;101283.75;16141974;19;129310;-40
2022/04/01 19:49:09;;;;;;;2.75;0.70;;;;;;;20.86;22.52;101290.53;16142027;19;129103;-42
2022/04/01 19:54:32;;;;;;;4.57;1.10;;;;;;;21.06;22.52;101298.38;16134789;19;130559;-42
2022/04/01 19:59:53;;;;;;;2.88;0.60;;;;;;;21.22;22.24;101298.63;16136119;19;129431;-43
2022/04/01 20:05:15;;;;;;;1.73;0.50;;;;;;;21.30;22.12;101311.22;16142113;19;129531;-44
2022/04/01 20:10:37;;;;;;;5.20;0.70;;;;;;;21.23;22.31;101303.09;16139794;19;129914;-47
2022/04/01 20:15:59;;;;;;;6.13;0.60;;;;;;;21.10;22.05;101309.00;16137378;19;129778;-45
2022/04/01 20:21:20;;;;;;;3.63;0.73;;;;;;;20.88;21.76;101305.03;16139025;19;129328;-44
2022/04/01 20:26:42;;;;;;;3.25;0.80;;;;;;;20.69;21.88;101311.88;16137692;19;129407;-44
2022/04/01 20:32:04;;;;;;;3.35;0.50;;;;;;;20.48;22.42;101308.75;16138633;19;128984;-42
2022/04/01 20:37:26;;;;;;;1.23;0.60;;;;;;;20.30;22.13;101320.91;16129837;19;129373;-46
2022/04/01 20:42:48;;;;;;;1.90;0.60;;;;;;;20.10;22.09;101322.22;16138182;19;129709;-46
2022/04/01 20:48:10;;;;;;;7.22;0.70;;;;;;;19.96;22.33;101331.88;16140542;19;130060;-43
2022/04/01 20:53:31;;;;;;;2.63;0.68;;;;;;;19.77;22.01;101329.25;16150802;19;129490;-44
2022/04/01 20:58:55;;;;;;;3.75;0.60;;;;;;;19.62;22.30;101338.09;16150378;19;129384;-41
2022/04/01 21:04:17;;;;;;;1.58;0.68;;;;;;;19.49;22.16;101347.53;16152428;19;129820;-43
2022/04/01 21:09:39;;;;;;;2.15;0.50;;;;;;;19.36;21.90;101345.81;16151385;19;129503;-44
2022/04/01 21:15:02;;;;;;;2.22;0.50;;;;;;;19.23;22.41;101346.06;16148493;19;128980;-42
2022/04/01 21:20:24;;;;;;;4.35;0.60;;;;;;;19.12;22.33;101350.50;16149616;19;129637;-42
2022/04/01 21:31:28;;;;;;;5.85;0.75;;;;;;;18.85;22.22;101361.16;16148438;19;129604;-44
2022/04/01 21:36:50;;;;;;;2.15;0.70;;;;;;;18.76;22.20;101357.91;16144620;19;129933;-41
2022/04/01 21:42:12;;;;;;;2.38;0.60;;;;;;;18.67;22.24;101364.84;16148867;19;130136;-42
2022/04/01 21:47:33;;;;;;;2.45;0.70;;;;;;;18.60;22.63;101370.47;16144021;19;129741;-42
2022/04/01 21:52:55;;;;;;;2.88;0.90;;;;;;;18.50;22.65;101367.44;16147788;19;130262;-42
2022/04/01 21:58:17;;;;;;;2.80;1.10;;;;;;;18.42;22.28;101363.06;16147911;19;130217;-42
2022/04/01 22:03:39;;;;;;;3.00;0.90;;;;;;;18.35;22.57;101365.06;16147904;19;129396;-41
2022/04/01 22:09:04;;;;;;;2.05;0.90;;;;;;;18.28;22.53;101373.47;16150123;19;129665;-42
2022/04/01 22:14:26;;;;;;;3.47;0.97;;;;;;;18.20;22.67;101384.88;16144200;19;129454;-46
2022/04/01 22:19:50;;;;;;;3.65;1.00;;;;;;;18.14;22.47;101379.16;16146937;19;130011;-42
2022/04/01 22:25:12;;;;;;;1.92;1.00;;;;;;;18.10;22.87;101388.16;16148516;19;129362;-42
2022/04/01 22:30:34;;;;;;;2.55;1.15;;;;;;;18.03;22.80;101382.72;16146762;19;130430;-41
2022/04/01 22:35:56;;;;;;;3.05;0.93;;;;;;;17.97;22.60;101384.47;16144416;19;128868;-41
2022/04/01 22:41:22;;;;;;;2.63;1.03;;;;;;;17.91;22.55;101384.56;16146686;19;128863;-41
2022/04/01 22:46:43;;;;;;;1.90;1.00;;;;;;;17.86;22.91;101388.00;16142509;19;129447;-43
2022/04/01 22:52:23;;;;;;;1.83;0.98;;;;;;;17.80;22.68;101387.00;16144429;19;129270;-44
2022/04/01 22:57:45;;;;;;;2.13;1.05;;;;;;;17.74;22.69;101389.84;16139642;19;132216;-41
2022/04/01 23:03:08;;;;;;;2.95;1.30;;;;;;;17.69;22.77;101387.78;16143511;19;129278;-46
2022/04/01 23:08:30;;;;;;;1.60;1.02;;;;;;;17.63;22.57;101392.31;16142988;19;130339;-41
2022/04/01 23:13:51;;;;;;;3.80;1.10;;;;;;;17.56;22.85;101383.22;16143207;19;129186;-43
2022/04/01 23:19:13;;;;;;;2.45;1.00;;;;;;;17.52;22.45;101393.84;16142743;19;129047;-42
2022/04/01 23:24:35;;;;;;;1.83;0.95;;;;;;;17.48;22.31;101398.13;16141717;19;131832;-42
2022/04/01 23:29:57;;;;;;;4.22;1.30;;;;;;;17.45;22.76;101394.97;16143842;19;129245;-42
2022/04/01 23:35:20;;;;;;;2.00;1.10;;;;;;;17.40;22.51;101401.19;16141315;19;129501;-41
2022/04/01 23:40:43;;;;;;;4.65;1.10;;;;;;;17.33;22.47;101398.50;16142863;19;130289;-41
2022/04/01 23:46:05;;;;;;;2.25;1.23;;;;;;;17.30;22.41;101398.94;16139239;19;129028;-44
2022/04/01 23:51:27;;;;;;;1.35;0.80;;;;;;;17.26;22.57;101394.94;16143356;19;129580;-42
2022/04/01 23:56:49;;;;;;;1.75;1.15;;;;;;;17.23;22.38;101390.69;16137264;19;128980;-42
